Time;durP1;ratioP1;P1;durP2;ratioP2;P2;SDS_P1;SDS_P2;PMS_P1;PMS_P2;Temp;Humidity;BMP_temperature;BMP_pressure;BME280_temperature;BME280_humidity;BME280_pressure;Samples;Min_cycle;Max_cycle;Signal;HPM_P1;HPM_P2
2023/11/06 00:02:16;;;;;;;3.03;1.43;;;10.00;99.90;;;;;;5058009;28;20819;-64
2023/11/06 00:04:43;;;;;;;2.83;1.80;;;10.10;99.90;;;;;;5057632;28;20444;-64
2023/11/06 00:07:12;;;;;;;2.20;1.33;;;10.10;99.90;;;;;;5073910;22;20492;-65
2023/11/06 00:09:39;;;;;;;4.90;2.70;;;10.00;99.90;;;;;;5057501;28;20444;-65
2023/11/06 00:12:06;;;;;;;3.90;1.93;;;10.00;99.90;;;;;;5057874;28;21116;-65
2023/11/06 00:14:33;;;;;;;4.23;1.80;;;10.10;99.90;;;;;;5057468;28;20568;-65
2023/11/06 00:17:00;;;;;;;2.80;1.40;;;10.10;99.90;;;;;;5057376;28;20504;-65
2023/11/06 00:19:26;;;;;;;2.47;1.80;;;10.10;99.90;;;;;;5057788;28;20531;-65
2023/11/06 00:21:53;;;;;;;6.57;3.37;;;10.10;99.90;;;;;;5057329;28;20885;-65
2023/11/06 00:24:22;;;;;;;2.03;1.50;;;10.10;99.90;;;;;;5057503;28;20443;-64
2023/11/06 00:26:48;;;;;;;2.23;1.67;;;10.20;99.90;;;;;;5057301;28;20971;-65
2023/11/06 00:29:15;;;;;;;2.10;1.47;;;10.20;99.90;;;;;;5057485;28;20535;-65
2023/11/06 00:31:42;;;;;;;6.63;1.53;;;10.20;99.90;;;;;;5057619;28;20476;-65
2023/11/06 00:34:10;;;;;;;3.50;2.00;;;10.20;99.90;;;;;;5057687;28;20524;-65
2023/11/06 00:36:36;;;;;;;2.67;2.47;;;10.20;99.90;;;;;;5057241;28;20468;-64
2023/11/06 00:39:04;;;;;;;3.07;1.43;;;10.20;99.90;;;;;;5057582;28;20957;-64
2023/11/06 00:41:32;;;;;;;1.33;1.20;;;10.30;99.90;;;;;;5057565;28;20485;-65
2023/11/06 00:43:58;;;;;;;3.43;1.90;;;10.30;99.90;;;;;;5057662;28;20208;-64
2023/11/06 00:53:10;;;;;;;2.80;1.40;;;10.30;99.90;;;;;;5056943;28;21007;-65
2023/11/06 00:55:39;;;;;;;3.10;1.50;;;10.30;99.90;;;;;;5056849;28;20476;-64
2023/11/06 00:58:07;;;;;;;1.50;1.40;;;10.30;99.90;;;;;;5057225;28;20206;-64
2023/11/06 01:00:34;;;;;;;2.93;1.77;;;10.30;99.90;;;;;;5055321;28;20449;-64
2023/11/06 01:03:01;;;;;;;1.97;1.40;;;10.30;99.90;;;;;;5054586;28;20444;-65
2023/11/06 01:05:29;;;;;;;1.93;1.40;;;10.30;99.90;;;;;;5055788;28;20835;-65
2023/11/06 01:07:56;;;;;;;4.33;1.70;;;10.30;99.90;;;;;;5052907;28;20532;-65
2023/11/06 01:10:22;;;;;;;6.80;2.23;;;10.30;99.90;;;;;;5053871;28;20445;-65
2023/11/06 01:12:49;;;;;;;6.03;2.00;;;10.20;99.90;;;;;;5053785;28;21027;-65
2023/11/06 01:15:17;;;;;;;2.93;2.00;;;10.20;99.90;;;;;;5053433;28;20441;-65
2023/11/06 01:17:44;;;;;;;1.80;1.70;;;10.20;99.90;;;;;;5053749;28;20531;-65
2023/11/06 01:20:12;;;;;;;2.23;2.03;;;10.20;99.90;;;;;;5053784;28;20535;-64
2023/11/06 01:22:38;;;;;;;1.53;1.33;;;10.20;99.90;;;;;;5053671;28;20444;-65
2023/11/06 01:25:06;;;;;;;5.53;1.53;;;10.20;99.90;;;;;;5053649;28;20973;-65
2023/11/06 01:27:33;;;;;;;8.73;2.60;;;10.20;99.90;;;;;;5053368;28;20483;-65
2023/11/06 01:30:00;;;;;;;2.58;1.50;;;10.20;99.90;;;;;;5053501;28;20207;-65
2023/11/06 01:32:28;;;;;;;1.37;1.37;;;10.10;99.90;;;;;;5053451;28;20245;-65
2023/11/06 01:34:55;;;;;;;3.20;1.60;;;10.10;99.90;;;;;;5053167;28;21224;-65
2023/11/06 01:37:22;;;;;;;3.70;2.33;;;10.10;99.90;;;;;;5053096;28;21074;-65
2023/11/06 01:39:48;;;;;;;2.10;1.50;;;10.10;99.90;;;;;;5053648;28;20449;-65
2023/11/06 01:42:15;;;;;;;4.30;1.70;;;10.10;99.90;;;;;;5053252;28;20529;-65
2023/11/06 01:44:42;;;;;;;5.17;1.60;;;10.10;99.90;;;;;;5053234;28;20445;-65
2023/11/06 01:47:09;;;;;;;1.60;1.50;;;10.10;99.90;;;;;;5052781;28;20503;-64
2023/11/06 01:49:38;;;;;;;5.27;1.80;;;10.20;99.90;;;;;;5052876;28;20954;-64
2023/11/06 01:52:08;;;;;;;1.40;1.30;;;10.20;99.90;;;;;;5053056;28;20455;-65
2023/11/06 01:54:35;;;;;;;3.77;1.53;;;10.20;99.90;;;;;;5053119;28;20496;-65
2023/11/06 01:57:05;;;;;;;3.33;1.40;;;10.20;99.90;;;;;;5052652;28;20464;-65
2023/11/06 01:59:32;;;;;;;6.13;2.43;;;10.20;99.90;;;;;;5053037;28;20448;-64
2023/11/06 02:02:04;;;;;;;1.60;1.30;;;10.20;99.90;;;;;;5052871;28;20445;-65
2023/11/06 02:04:31;;;;;;;5.10;1.53;;;10.20;99.90;;;;;;5053085;28;20449;-64
2023/11/06 02:07:00;;;;;;;2.00;1.40;;;10.20;99.90;;;;;;5052745;28;20481;-65
2023/11/06 02:09:28;;;;;;;3.60;2.13;;;10.30;99.90;;;;;;5053094;28;20445;-65
2023/11/06 02:11:56;;;;;;;4.00;1.90;;;10.30;99.90;;;;;;5052700;28;20535;-65
2023/11/06 02:14:23;;;;;;;2.70;1.43;;;10.30;99.90;;;;;;5052523;28;20560;-65
2023/11/06 02:16:51;;;;;;;2.40;1.60;;;10.30;99.90;;;;;;5052563;28;20551;-65
2023/11/06 02:19:18;;;;;;;2.97;1.63;;;10.30;99.90;;;;;;5052689;28;20452;-65
2023/11/06 02:21:49;;;;;;;4.20;2.07;;;10.30;99.90;;;;;;5052414;28;20990;-65
2023/11/06 02:24:17;;;;;;;4.80;2.37;;;10.30;99.90;;;;;;5052659;28;21000;-65
2023/11/06 02:26:53;;;;;;;2.97;1.50;;;10.40;99.90;;;;;;5051906;28;20473;-65
2023/11/06 02:29:20;;;;;;;4.70;2.23;;;10.30;99.90;;;;;;5032701;28;20454;-65
2023/11/06 02:31:47;;;;;;;2.60;1.40;;;10.30;99.90;;;;;;5032619;28;20481;-65
2023/11/06 02:34:14;;;;;;;1.67;1.57;;;10.30;99.90;;;;;;5032293;28;20489;-65
2023/11/06 02:36:41;;;;;;;2.97;2.60;;;10.30;99.90;;;;;;5032110;28;20472;-65
2023/11/06 02:39:09;;;;;;;4.93;2.03;;;10.30;99.90;;;;;;5032419;28;20445;-65
2023/11/06 02:41:38;;;;;;;3.73;1.67;;;10.30;99.90;;;;;;5032258;28;20481;-64
2023/11/06 02:44:05;;;;;;;6.97;1.83;;;10.30;99.90;;;;;;5032266;28;20441;-64
2023/11/06 02:46:32;;;;;;;2.60;1.37;;;10.30;99.90;;;;;;5031680;28;20476;-65
2023/11/06 02:48:59;;;;;;;2.37;1.53;;;10.30;99.90;;;;;;5032499;28;20559;-65
2023/11/06 02:51:26;;;;;;;2.07;1.63;;;10.30;99.90;;;;;;5032131;28;20450;-65
2023/11/06 02:53:53;;;;;;;7.03;3.40;;;10.30;99.90;;;;;;5031859;28;20871;-65
2023/11/06 02:56:20;;;;;;;5.50;2.07;;;10.30;99.90;;;;;;5031548;28;20548;-65
2023/11/06 02:58:48;;;;;;;2.00;1.20;;;10.30;99.90;;;;;;5032056;28;20452;-65
2023/11/06 03:01:14;;;;;;;5.23;3.03;;;10.30;99.90;;;;;;5031907;28;20442;-64
2023/11/06 03:03:41;;;;;;;4.37;2.07;;;10.30;99.90;;;;;;5032012;28;20884;-65
2023/11/06 03:06:09;;;;;;;2.20;1.07;;;10.30;99.90;;;;;;5031196;28;21079;-65
2023/11/06 03:08:36;;;;;;;3.70;2.33;;;10.30;99.90;;;;;;5031590;28;20508;-65
2023/11/06 03:11:03;;;;;;;4.60;2.47;;;10.30;99.90;;;;;;5031955;28;20548;-65
2023/11/06 03:13:29;;;;;;;6.73;2.17;;;10.20;99.90;;;;;;5031665;28;20533;-65
2023/11/06 03:15:58;;;;;;;2.17;1.80;;;10.20;99.90;;;;;;5031343;28;20498;-65
2023/11/06 03:18:24;;;;;;;8.30;2.33;;;10.20;99.90;;;;;;5031635;28;20489;-65
2023/11/06 03:20:51;;;;;;;3.67;2.90;;;10.20;99.90;;;;;;5031470;28;20441;-64
2023/11/06 03:23:18;;;;;;;4.00;2.77;;;10.10;99.90;;;;;;5031351;28;20442;-64
2023/11/06 03:25:45;;;;;;;3.23;2.03;;;10.10;99.90;;;;;;5031071;28;20553;-65
2023/11/06 03:28:12;;;;;;;1.77;1.67;;;10.10;99.90;;;;;;5031791;28;20540;-65
2023/11/06 03:30:38;;;;;;;1.60;1.50;;;10.10;99.90;;;;;;5031062;28;20890;-64
2023/11/06 03:33:06;;;;;;;1.93;1.80;;;10.10;99.90;;;;;;5031426;28;20544;-65
2023/11/06 03:35:35;;;;;;;3.27;1.97;;;10.10;99.90;;;;;;5030835;28;20494;-65
2023/11/06 03:38:02;;;;;;;4.43;1.90;;;10.10;99.90;;;;;;5031198;28;20956;-64
2023/11/06 03:40:28;;;;;;;5.30;2.47;;;10.20;99.90;;;;;;5031584;28;20617;-65
2023/11/06 03:42:55;;;;;;;2.63;1.80;;;10.20;99.90;;;;;;5031212;28;20538;-64
2023/11/06 03:45:22;;;;;;;3.40;1.40;;;10.20;99.90;;;;;;5030906;28;20485;-65
2023/11/06 03:47:49;;;;;;;2.77;2.03;;;10.20;99.90;;;;;;5031213;28;20823;-64
2023/11/06 03:50:17;;;;;;;6.33;2.40;;;10.20;99.90;;;;;;5031010;28;20446;-65
2023/11/06 03:52:44;;;;;;;2.67;2.10;;;10.20;99.90;;;;;;5030998;28;20496;-64
2023/11/06 03:55:12;;;;;;;2.30;2.10;;;10.20;99.90;;;;;;5031032;28;20485;-64
2023/11/06 03:57:39;;;;;;;3.47;1.90;;;10.20;99.90;;;;;;5031200;28;20489;-64
2023/11/06 04:00:09;;;;;;;5.63;1.97;;;10.20;99.90;;;;;;5031141;28;20449;-64
2023/11/06 04:02:36;;;;;;;4.70;3.03;;;10.20;99.90;;;;;;5031317;28;20874;-64
2023/11/06 04:05:03;;;;;;;6.70;2.37;;;10.20;99.90;;;;;;5031028;28;20519;-63
2023/11/06 04:07:32;;;;;;;3.57;2.90;;;10.10;99.90;;;;;;5030559;28;20564;-64
2023/11/06 04:09:58;;;;;;;2.27;2.03;;;10.10;99.90;;;;;;5031131;28;20850;-64
2023/11/06 04:12:25;;;;;;;3.57;1.90;;;10.10;99.90;;;;;;5031146;28;20450;-64
2023/11/06 04:14:53;;;;;;;3.70;1.87;;;10.10;99.90;;;;;;5029482;28;20481;-64
2023/11/06 04:17:20;;;;;;;3.03;1.93;;;10.10;99.90;;;;;;5031099;28;20473;-63
2023/11/06 04:19:47;;;;;;;3.47;1.50;;;10.00;99.90;;;;;;5031042;28;21686;-63
2023/11/06 04:22:14;;;;;;;6.07;3.13;;;9.90;99.90;;;;;;5030807;28;20445;-64
2023/11/06 04:24:42;;;;;;;1.90;1.80;;;9.90;99.90;;;;;;5030816;28;20297;-64
2023/11/06 04:27:09;;;;;;;2.80;1.87;;;9.90;99.90;;;;;;5030629;28;20476;-64
2023/11/06 04:29:37;;;;;;;4.60;2.30;;;9.90;99.90;;;;;;5031018;28;20536;-64
2023/11/06 04:32:05;;;;;;;2.23;2.03;;;9.90;99.90;;;;;;5030986;28;21686;-64
2023/11/06 04:34:32;;;;;;;4.00;1.90;;;9.90;99.90;;;;;;5030778;28;20489;-64
2023/11/06 04:36:59;;;;;;;3.08;1.90;;;9.90;99.90;;;;;;5030331;28;20557;-63
2023/11/06 04:39:25;;;;;;;5.13;2.00;;;9.80;99.90;;;;;;5030964;28;20243;-64
2023/11/06 04:41:53;;;;;;;2.85;2.10;;;9.80;99.90;;;;;;5033455;28;20977;-64
2023/11/06 04:44:20;;;;;;;2.77;1.53;;;9.80;99.90;;;;;;5034192;28;20747;-63
2023/11/06 04:46:47;;;;;;;4.87;1.70;;;9.70;99.90;;;;;;5034050;28;21031;-64
2023/11/06 04:49:15;;;;;;;2.83;1.50;;;9.70;99.90;;;;;;5034061;28;20453;-64
2023/11/06 04:51:41;;;;;;;6.63;1.77;;;9.70;99.90;;;;;;5033953;28;20449;-63
2023/11/06 04:54:08;;;;;;;6.97;2.10;;;9.70;99.90;;;;;;5034404;28;20446;-64
2023/11/06 04:56:35;;;;;;;4.53;1.60;;;9.70;99.90;;;;;;5033877;28;20552;-64
2023/11/06 04:59:04;;;;;;;2.30;1.40;;;9.70;99.90;;;;;;5034197;28;20460;-63
2023/11/06 05:01:31;;;;;;;2.40;1.30;;;9.70;99.90;;;;;;5033928;28;21142;-64
2023/11/06 05:03:58;;;;;;;4.43;3.03;;;9.70;99.90;;;;;;5033895;28;20450;-63
2023/11/06 05:06:25;;;;;;;2.00;1.70;;;9.70;99.90;;;;;;5033612;28;20489;-64
2023/11/06 05:08:53;;;;;;;2.27;1.30;;;9.60;99.90;;;;;;5034089;28;20210;-64
2023/11/06 05:11:20;;;;;;;1.45;1.35;;;9.70;99.90;;;;;;5034057;28;20500;-64
2023/11/06 05:13:47;;;;;;;3.00;1.87;;;9.70;99.90;;;;;;5033948;28;20207;-64
2023/11/06 05:16:15;;;;;;;2.28;1.95;;;9.70;99.90;;;;;;5033594;28;20517;-63
2023/11/06 05:18:42;;;;;;;1.23;1.00;;;9.70;99.90;;;;;;5033862;28;20299;-64
2023/11/06 05:21:09;;;;;;;3.33;1.93;;;9.70;99.90;;;;;;5033506;28;20512;-63
2023/11/06 05:23:36;;;;;;;1.60;1.50;;;9.60;99.90;;;;;;5033758;28;20546;-63
2023/11/06 05:26:04;;;;;;;2.87;1.23;;;9.60;99.90;;;;;;5033142;28;20895;-64
2023/11/06 05:28:31;;;;;;;3.50;1.40;;;9.60;99.90;;;;;;5033662;28;20995;-63
2023/11/06 05:30:58;;;;;;;1.63;1.10;;;9.60;99.90;;;;;;5033538;28;20460;-64
2023/11/06 05:33:26;;;;;;;2.07;1.17;;;9.60;99.90;;;;;;5033521;28;20940;-64
2023/11/06 05:35:53;;;;;;;2.80;1.00;;;9.60;99.90;;;;;;5033104;28;20493;-64
2023/11/06 05:38:19;;;;;;;4.50;1.50;;;9.60;99.90;;;;;;5033464;28;20449;-64
2023/11/06 05:40:46;;;;;;;4.13;1.65;;;9.60;99.90;;;;;;5033131;28;20450;-63
2023/11/06 05:43:13;;;;;;;2.07;1.40;;;9.60;99.90;;;;;;5033413;28;20262;-64
2023/11/06 05:45:40;;;;;;;1.10;1.10;;;9.60;99.90;;;;;;5032815;28;20500;-64
2023/11/06 05:48:07;;;;;;;1.30;1.20;;;9.50;99.90;;;;;;5033353;28;20238;-64
2023/11/06 05:50:36;;;;;;;2.35;1.90;;;9.50;99.90;;;;;;5033189;28;20219;-64
2023/11/06 05:53:03;;;;;;;1.85;1.50;;;9.50;99.90;;;;;;5032564;28;20207;-63
2023/11/06 05:55:28;;;;;;;2.10;1.85;;;9.50;99.90;;;;;;5032784;28;20318;-64
2023/11/06 05:57:55;;;;;;;5.17;1.50;;;9.50;99.90;;;;;;5033238;28;20286;-63
2023/11/06 06:00:22;;;;;;;1.42;1.30;;;9.50;99.90;;;;;;5033099;28;20230;-64
2023/11/06 06:02:49;;;;;;;2.07;1.10;;;9.50;99.90;;;;;;5032956;28;20213;-64
2023/11/06 06:05:17;;;;;;;1.35;1.10;;;9.50;99.90;;;;;;5032468;28;20441;-63
2023/11/06 06:07:45;;;;;;;2.10;1.10;;;9.50;99.90;;;;;;5033164;28;20207;-64
2023/11/06 06:10:12;;;;;;;2.13;1.45;;;9.50;99.90;;;;;;5032833;28;20533;-64
2023/11/06 06:12:39;;;;;;;1.02;0.90;;;9.50;99.90;;;;;;5032825;28;20206;-64
2023/11/06 06:15:08;;;;;;;2.97;1.50;;;9.50;99.90;;;;;;5032834;28;20265;-64
2023/11/06 06:17:37;;;;;;;3.72;1.58;;;9.50;99.90;;;;;;5032685;28;20209;-63
2023/11/06 06:20:05;;;;;;;1.83;1.70;;;9.50;99.90;;;;;;5032653;28;20585;-64
2023/11/06 06:22:32;;;;;;;2.15;1.50;;;9.50;99.90;;;;;;5032410;28;20979;-64
2023/11/06 06:25:00;;;;;;;2.78;0.80;;;9.50;99.90;;;;;;5032503;28;20278;-64
2023/11/06 06:27:27;;;;;;;5.00;1.13;;;9.50;99.90;;;;;;5032063;28;20658;-64
2023/11/06 06:29:54;;;;;;;11.43;1.53;;;9.50;99.90;;;;;;5032479;28;20209;-64
2023/11/06 06:32:21;;;;;;;3.63;1.67;;;9.50;99.90;;;;;;5032353;28;20450;-64
2023/11/06 06:34:48;;;;;;;2.30;1.60;;;9.50;99.90;;;;;;5032163;28;20487;-64
2023/11/06 06:37:15;;;;;;;12.93;4.55;;;9.50;99.90;;;;;;5032579;28;20473;-64
2023/11/06 06:39:42;;;;;;;4.15;1.75;;;9.50;99.90;;;;;;5051969;28;20293;-65
2023/11/06 06:42:10;;;;;;;1.80;1.67;;;9.50;99.90;;;;;;5051869;28;20202;-64
2023/11/06 06:44:37;;;;;;;3.92;2.40;;;9.60;99.90;;;;;;5051830;28;20449;-64
2023/11/06 06:47:04;;;;;;;6.33;1.47;;;9.60;99.90;;;;;;5051832;28;20230;-64
2023/11/06 06:49:33;;;;;;;2.53;1.50;;;9.60;99.90;;;;;;5052020;28;20456;-64
2023/11/06 06:52:00;;;;;;;2.20;2.10;;;9.60;99.90;;;;;;5051921;28;20510;-64
2023/11/06 06:54:27;;;;;;;5.23;4.87;;;9.60;99.90;;;;;;5051559;28;20460;-65
2023/11/06 06:56:55;;;;;;;11.43;5.30;;;9.70;99.90;;;;;;5051360;28;20568;-64
2023/11/06 06:59:23;;;;;;;4.67;2.23;;;9.70;99.90;;;;;;5051810;28;20868;-64
2023/11/06 07:01:50;;;;;;;2.20;2.00;;;9.70;99.90;;;;;;5037279;28;20458;-65
2023/11/06 07:04:17;;;;;;;3.13;2.63;;;9.80;99.90;;;;;;5030552;28;20446;-64
2023/11/06 07:06:43;;;;;;;9.23;3.07;;;9.80;99.90;;;;;;5031271;28;20513;-64
2023/11/06 07:09:10;;;;;;;18.73;6.73;;;9.80;99.90;;;;;;5031745;28;20862;-64
2023/11/06 07:11:37;;;;;;;16.40;4.93;;;9.90;99.90;;;;;;5031576;28;20481;-64
2023/11/06 07:14:04;;;;;;;5.07;2.37;;;9.90;99.90;;;;;;5031329;28;20477;-65
2023/11/06 07:16:32;;;;;;;4.30;2.30;;;9.90;99.90;;;;;;5047177;28;20496;-64
2023/11/06 07:18:59;;;;;;;3.30;2.00;;;9.90;99.90;;;;;;5051607;28;20448;-64
2023/11/06 07:21:26;;;;;;;4.37;2.47;;;9.90;99.90;;;;;;5051407;28;20445;-64
2023/11/06 07:23:54;;;;;;;3.37;3.17;;;10.00;99.90;;;;;;5051780;28;20820;-64
2023/11/06 07:26:22;;;;;;;7.10;4.37;;;10.00;99.90;;;;;;5050619;28;20496;-64
2023/11/06 07:28:49;;;;;;;4.23;1.53;;;10.00;99.90;;;;;;5051428;28;20881;-64
2023/11/06 07:31:16;;;;;;;3.30;3.00;;;10.10;99.90;;;;;;5050900;28;20469;-64
2023/11/06 07:33:44;;;;;;;7.37;2.90;;;10.10;99.90;;;;;;5050946;28;20452;-64
2023/11/06 07:36:11;;;;;;;2.00;1.40;;;10.10;99.90;;;;;;5050435;28;20484;-65
2023/11/06 07:38:38;;;;;;;3.47;1.83;;;10.10;99.90;;;;;;5042966;28;20532;-64
2023/11/06 07:41:05;;;;;;;9.50;3.83;;;10.20;99.90;;;;;;5035229;28;20540;-65
2023/11/06 07:43:32;;;;;;;22.20;4.50;;;10.20;99.90;;;;;;5038117;28;20459;-64
2023/11/06 07:45:58;;;;;;;4.40;1.80;;;10.20;99.90;;;;;;5050570;28;20465;-64
2023/11/06 07:48:25;;;;;;;2.53;1.50;;;10.30;99.90;;;;;;5040298;28;20552;-65
2023/11/06 07:50:55;;;;;;;3.80;2.00;;;10.30;99.90;;;;;;5032354;28;20527;-65
2023/11/06 07:53:21;;;;;;;2.90;1.97;;;10.40;99.90;;;;;;5043749;28;20552;-65
2023/11/06 07:55:48;;;;;;;9.30;2.17;;;10.40;99.90;;;;;;5042308;28;20492;-65
2023/11/06 07:58:15;;;;;;;6.73;1.73;;;10.50;99.90;;;;;;5047724;28;20548;-64
2023/11/06 08:00:42;;;;;;;2.93;2.30;;;10.50;99.90;;;;;;5038862;28;20545;-65
2023/11/06 08:03:09;;;;;;;5.40;2.20;;;10.50;99.90;;;;;;5041315;28;20465;-65
2023/11/06 08:05:37;;;;;;;2.97;1.93;;;10.60;99.90;;;;;;5039148;28;20480;-64
2023/11/06 08:08:05;;;;;;;2.90;1.80;;;10.50;99.90;;;;;;5044128;28;20484;-65
2023/11/06 08:10:34;;;;;;;5.83;1.60;;;10.50;99.90;;;;;;5050562;28;20449;-64
2023/11/06 08:13:01;;;;;;;4.47;2.20;;;10.60;99.90;;;;;;5049450;28;21000;-65
2023/11/06 08:15:28;;;;;;;2.50;1.53;;;10.60;99.90;;;;;;5046289;28;20527;-65
2023/11/06 08:17:55;;;;;;;1.70;1.33;;;10.60;99.90;;;;;;5048082;28;20456;-65
2023/11/06 08:20:22;;;;;;;2.13;1.50;;;10.60;99.90;;;;;;5054171;28;20927;-64
2023/11/06 08:22:48;;;;;;;2.27;1.37;;;10.60;99.90;;;;;;5050084;28;20532;-65
2023/11/06 08:25:17;;;;;;;1.73;1.60;;;10.60;99.90;;;;;;5054103;28;20821;-64
2023/11/06 08:27:44;;;;;;;2.17;1.40;;;10.60;99.90;;;;;;5051184;28;20452;-64
2023/11/06 08:30:12;;;;;;;28.10;7.23;;;10.60;99.90;;;;;;5052648;28;20454;-64
2023/11/06 08:32:39;;;;;;;6.80;1.77;;;10.70;99.90;;;;;;5048723;28;20518;-65
2023/11/06 08:35:07;;;;;;;3.00;1.67;;;10.70;99.90;;;;;;5054171;28;20474;-65
2023/11/06 08:37:34;;;;;;;5.67;2.30;;;10.70;99.90;;;;;;5052925;28;20464;-65
2023/11/06 08:40:02;;;;;;;3.50;1.80;;;10.70;99.90;;;;;;5052775;28;20455;-64
2023/11/06 08:42:30;;;;;;;3.00;1.33;;;10.80;99.90;;;;;;5040384;28;20515;-64
2023/11/06 08:44:57;;;;;;;2.47;1.60;;;10.80;99.90;;;;;;5044805;28;20527;-64
2023/11/06 08:47:24;;;;;;;4.17;1.77;;;10.80;99.90;;;;;;5051107;28;20469;-65
2023/11/06 08:49:51;;;;;;;2.20;1.60;;;10.90;99.90;;;;;;5037193;28;20456;-64
2023/11/06 08:52:18;;;;;;;3.70;1.60;;;10.90;99.90;;;;;;5049136;28;20455;-65
2023/11/06 08:54:45;;;;;;;19.53;6.63;;;11.00;99.90;;;;;;5053937;28;20466;-65
2023/11/06 08:57:12;;;;;;;4.93;1.53;;;11.10;99.90;;;;;;5053407;28;20488;-65
2023/11/06 08:59:41;;;;;;;4.53;2.87;;;11.20;99.90;;;;;;5053823;28;20456;-64
2023/11/06 09:02:08;;;;;;;1.83;1.73;;;11.20;99.90;;;;;;5053319;28;20448;-64
2023/11/06 09:04:35;;;;;;;4.33;2.07;;;11.20;99.90;;;;;;5053554;28;20449;-65
2023/11/06 09:07:03;;;;;;;14.23;4.87;;;11.20;99.90;;;;;;5041179;28;20481;-65
2023/11/06 09:09:30;;;;;;;16.43;5.00;;;11.30;99.90;;;;;;5049984;28;20598;-65
2023/11/06 09:11:57;;;;;;;7.73;1.77;;;11.40;99.90;;;;;;5052785;28;20448;-64
2023/11/06 09:14:24;;;;;;;4.90;1.60;;;11.40;99.90;;;;;;5045809;28;20454;-64
2023/11/06 09:16:52;;;;;;;4.97;1.83;;;11.60;99.90;;;;;;5032818;28;20536;-64
2023/11/06 09:19:18;;;;;;;6.83;1.60;;;11.60;99.90;;;;;;5033419;28;20453;-65
2023/11/06 09:21:45;;;;;;;2.43;1.57;;;11.60;99.90;;;;;;5033195;28;20492;-65
2023/11/06 09:24:12;;;;;;;4.73;1.73;;;11.70;99.90;;;;;;5033408;28;20446;-65
2023/11/06 09:26:39;;;;;;;2.40;1.60;;;11.70;99.90;;;;;;5032394;28;20886;-64
2023/11/06 09:29:06;;;;;;;11.57;3.30;;;11.60;99.90;;;;;;5032395;28;20454;-65
2023/11/06 09:31:34;;;;;;;5.00;1.90;;;11.60;99.90;;;;;;5033757;28;20456;-65
2023/11/06 09:34:02;;;;;;;6.20;1.50;;;11.60;99.90;;;;;;5052913;28;20536;-64
2023/11/06 09:36:29;;;;;;;5.20;2.07;;;11.60;99.90;;;;;;5050292;28;20485;-64
2023/11/06 09:38:56;;;;;;;5.37;2.73;;;11.70;99.90;;;;;;5051291;28;20464;-65
2023/11/06 09:41:25;;;;;;;3.57;1.43;;;11.70;99.90;;;;;;5049971;28;20455;-64
2023/11/06 09:43:52;;;;;;;12.13;2.60;;;11.80;99.90;;;;;;5052420;28;20467;-64
2023/11/06 09:46:19;;;;;;;5.57;2.10;;;11.80;99.90;;;;;;5051692;28;20544;-64
2023/11/06 09:48:47;;;;;;;7.83;2.63;;;11.80;99.90;;;;;;5047793;28;20456;-65
2023/11/06 09:51:16;;;;;;;6.90;2.07;;;11.80;99.90;;;;;;5051730;28;20441;-64
2023/11/06 09:53:46;;;;;;;37.33;8.10;;;11.70;99.90;;;;;;5051879;28;20452;-64
2023/11/06 09:56:14;;;;;;;4.17;1.53;;;11.70;99.90;;;;;;5051340;28;20489;-63
2023/11/06 09:58:41;;;;;;;2.27;1.57;;;11.60;99.90;;;;;;5051716;28;20480;-64
2023/11/06 10:01:09;;;;;;;4.47;1.50;;;11.60;99.90;;;;;;5051852;28;20441;-63
2023/11/06 10:03:37;;;;;;;8.50;2.17;;;11.50;99.90;;;;;;5051858;28;20451;-65
2023/11/06 10:06:04;;;;;;;8.47;3.10;;;11.50;99.90;;;;;;5050670;28;20468;-65
2023/11/06 10:08:35;;;;;;;5.40;2.10;;;11.60;99.90;;;;;;5052015;28;20448;-65
2023/11/06 10:11:03;;;;;;;3.40;1.20;;;11.80;99.90;;;;;;5051908;28;20467;-65
2023/11/06 10:13:32;;;;;;;7.03;2.27;;;12.00;99.90;;;;;;5052016;28;20445;-65
2023/11/06 10:16:17;;;;;;;4.87;1.53;;;12.30;99.90;;;;;;5051168;28;20484;-65
2023/11/06 10:18:44;;;;;;;8.83;2.60;;;12.50;99.90;;;;;;5051217;28;20532;-65
2023/11/06 10:21:11;;;;;;;2.60;1.93;;;12.70;99.90;;;;;;5054429;28;20537;-64
2023/11/06 10:23:42;;;;;;;5.73;1.47;;;12.80;99.90;;;;;;5051498;28;20472;-65
2023/11/06 10:26:13;;;;;;;6.03;1.47;;;12.90;99.90;;;;;;5050704;28;20472;-65
2023/11/06 10:28:41;;;;;;;4.57;2.37;;;12.90;99.90;;;;;;5051215;28;20991;-65
2023/11/06 10:31:09;;;;;;;3.43;1.87;;;12.90;99.90;;;;;;5050674;28;20460;-66
2023/11/06 10:33:36;;;;;;;2.77;1.53;;;12.90;99.90;;;;;;5050980;28;20508;-65
2023/11/06 10:36:15;;;;;;;2.67;1.57;;;12.90;99.90;;;;;;5050695;28;20535;-65
2023/11/06 10:38:44;;;;;;;6.60;2.40;;;12.90;99.90;;;;;;5050965;28;20897;-65
2023/11/06 10:41:24;;;;;;;2.40;1.67;;;12.90;99.90;;;;;;5050781;28;20445;-65
2023/11/06 10:43:53;;;;;;;3.37;1.37;;;12.90;99.90;;;;;;5050415;28;20452;-65
2023/11/06 10:46:21;;;;;;;1.83;1.33;;;12.90;99.90;;;;;;5050632;28;20453;-64
2023/11/06 10:48:54;;;;;;;4.67;1.60;;;13.00;99.90;;;;;;5050343;28;21010;-64
2023/11/06 10:51:23;;;;;;;5.90;2.03;;;13.00;99.90;;;;;;5050652;28;20523;-65
2023/11/06 10:53:51;;;;;;;4.60;1.80;;;13.00;99.90;;;;;;5050583;28;20447;-65
2023/11/06 10:56:20;;;;;;;3.73;1.27;;;13.00;99.90;;;;;;5049867;28;20511;-65
2023/11/06 10:58:47;;;;;;;4.27;1.40;;;13.00;99.90;;;;;;5050395;28;20451;-65
2023/11/06 11:01:15;;;;;;;4.20;2.27;;;13.10;99.90;;;;;;5050555;28;20883;-65
2023/11/06 11:03:44;;;;;;;2.00;1.67;;;13.30;99.90;;;;;;5050723;28;20441;-64
2023/11/06 11:06:11;;;;;;;3.90;2.10;;;13.40;99.90;;;;;;5049843;28;20464;-64
2023/11/06 11:08:38;;;;;;;3.03;1.63;;;13.50;99.90;;;;;;5050005;28;20524;-65
2023/11/06 11:11:09;;;;;;;3.20;1.40;;;13.70;99.90;;;;;;5050543;28;20441;-65
2023/11/06 11:13:36;;;;;;;3.20;1.67;;;13.90;99.90;;;;;;5050629;28;20449;-65
2023/11/06 11:16:36;;;;;;;3.60;1.73;;;14.10;99.90;;;;;;5049939;28;20544;-65
2023/11/06 11:19:20;;;;;;;1.87;1.00;;;14.30;99.90;;;;;;5050121;28;20901;-65
2023/11/06 11:22:05;;;;;;;2.53;1.20;;;14.40;99.90;;;;;;5051173;28;20445;-65
2023/11/06 11:24:52;;;;;;;5.70;1.73;;;14.40;99.90;;;;;;5050565;28;20838;-65
2023/11/06 11:27:22;;;;;;;6.40;1.93;;;14.30;99.90;;;;;;5049238;28;20544;-66
2023/11/06 11:30:10;;;;;;;6.63;1.77;;;14.10;99.90;;;;;;5050433;28;20467;-65
2023/11/06 11:32:52;;;;;;;4.93;1.27;;;13.90;99.90;;;;;;5050291;28;20809;-66
2023/11/06 11:36:01;;;;;;;2.77;2.07;;;13.80;99.90;;;;;;5049427;28;21275;-65
2023/11/06 11:38:35;;;;;;;3.60;1.10;;;13.60;99.90;;;;;;5050100;28;20888;-65
2023/11/06 11:41:13;;;;;;;3.30;1.40;;;13.50;99.90;;;;;;5049465;28;20433;-65
2023/11/06 11:43:49;;;;;;;6.53;1.33;;;13.40;99.90;;;;;;5049722;28;20965;-65
2023/11/06 11:47:04;;;;;;;4.17;1.33;;;13.30;99.90;;;;;;5049070;28;20459;-65
2023/11/06 11:49:44;;;;;;;1.13;1.00;;;13.40;99.90;;;;;;5039105;28;20522;-65
2023/11/06 11:52:13;;;;;;;4.60;1.50;;;13.80;99.90;;;;;;5047343;28;20449;-65
2023/11/06 11:54:40;;;;;;;3.60;1.20;;;14.20;99.90;;;;;;5044097;28;20532;-65
2023/11/06 11:57:08;;;;;;;1.90;0.97;;;14.50;99.90;;;;;;5049422;28;21240;-65
2023/11/06 11:59:41;;;;;;;4.73;0.97;;;14.70;99.90;;;;;;5050604;28;20445;-65
2023/11/06 12:02:21;;;;;;;2.20;1.00;;;14.90;99.90;;;;;;5050335;28;20524;-65
2023/11/06 12:04:48;;;;;;;3.33;0.90;;;14.80;99.90;;;;;;5050114;28;20460;-65
2023/11/06 12:07:16;;;;;;;1.93;0.87;;;14.80;99.90;;;;;;5049611;28;20837;-65
2023/11/06 12:09:50;;;;;;;0.60;0.60;;;14.80;99.90;;;;;;5050214;28;20520;-66
2023/11/06 12:12:22;;;;;;;4.10;1.00;;;14.90;99.90;;;;;;5050137;28;20482;-65
2023/11/06 12:14:50;;;;;;;1.90;1.00;;;14.90;99.90;;;;;;5049913;28;20951;-65
2023/11/06 12:17:28;;;;;;;1.07;0.80;;;14.90;99.90;;;;;;5049647;28;20579;-65
2023/11/06 12:19:55;;;;;;;1.60;0.73;;;14.70;99.90;;;;;;5050055;28;20447;-65
2023/11/06 12:22:23;;;;;;;3.50;1.40;;;14.60;99.90;;;;;;5050305;28;20815;-66
2023/11/06 12:24:51;;;;;;;3.67;0.80;;;14.40;99.90;;;;;;5049933;28;21002;-65
2023/11/06 12:27:19;;;;;;;2.50;1.00;;;14.30;99.90;;;;;;5049851;28;20457;-65
2023/11/06 12:29:46;;;;;;;3.10;1.40;;;14.30;99.90;;;;;;5049771;28;20483;-65
2023/11/06 12:32:21;;;;;;;2.60;1.03;;;14.20;99.90;;;;;;5050082;28;20516;-65
2023/11/06 12:35:02;;;;;;;2.90;0.80;;;14.10;99.90;;;;;;5049915;28;20552;-66
2023/11/06 12:37:29;;;;;;;2.60;0.90;;;14.10;99.90;;;;;;5033896;28;20488;-65
2023/11/06 12:40:10;;;;;;;3.40;0.57;;;14.10;99.90;;;;;;5049944;28;20455;-65
2023/11/06 12:42:39;;;;;;;2.63;1.37;;;13.90;99.90;;;;;;5048841;28;20963;-65
2023/11/06 12:45:30;;;;;;;1.23;0.83;;;13.90;99.90;;;;;;5048699;28;20464;-65
2023/11/06 12:47:59;;;;;;;1.53;1.00;;;13.80;99.90;;;;;;5049551;28;20445;-65
2023/11/06 12:50:26;;;;;;;3.03;0.87;;;13.80;99.90;;;;;;5049878;28;20512;-65
2023/11/06 12:52:53;;;;;;;1.17;0.50;;;13.80;99.90;;;;;;5049733;28;21010;-65
2023/11/06 12:55:22;;;;;;;8.00;2.27;;;13.70;99.90;;;;;;5049497;28;20464;-65
2023/11/06 12:57:50;;;;;;;1.33;0.90;;;13.70;99.90;;;;;;5049327;28;21046;-65
2023/11/06 13:00:23;;;;;;;2.00;0.90;;;13.70;99.90;;;;;;5049609;28;20445;-65
2023/11/06 13:02:51;;;;;;;2.60;1.73;;;13.70;99.90;;;;;;5052176;28;20536;-65